Time;durP1;ratioP1;P1;durP2;ratioP2;P2;SDS_P1;SDS_P2;PMS_P1;PMS_P2;Temp;Humidity;BMP_temperature;BMP_pressure;BME280_temperature;BME280_humidity;BME280_pressure;Samples;Min_cycle;Max_cycle;Signal;HPM_P1;HPM_P2
2021/12/21 00:01:35;;;;;;;9.85;5.28;;;;;;;-6.15;100.00;99600.81;4155813;28;20045;-71
2021/12/21 00:03:35;;;;;;;8.25;5.28;;;;;;;-6.26;100.00;99599.81;4155683;28;20049;-71
2021/12/21 00:05:37;;;;;;;10.27;5.72;;;;;;;-6.33;100.00;99599.97;4154967;28;20111;-71
2021/12/21 00:07:37;;;;;;;15.15;6.95;;;;;;;-6.25;100.00;99601.47;4153859;28;20406;-71
2021/12/21 00:09:37;;;;;;;11.20;6.13;;;;;;;-6.12;100.00;99603.03;4153669;28;20041;-71
2021/12/21 00:11:38;;;;;;;13.10;6.85;;;;;;;-6.06;100.00;99607.44;4155178;28;20053;-71
2021/12/21 00:16:00;;;;;;;10.43;5.80;;;;;;;-5.92;100.00;99602.59;4154338;28;20045;-71
2021/12/21 00:19:04;;;;;;;11.10;5.95;;;;;;;-5.90;100.00;99603.16;4153418;28;20057;-71
2021/12/21 00:20:33;;;;;;;10.70;5.32;;;;;;;-5.96;100.00;99605.78;4148168;28;20426;-71
2021/12/21 00:24:51;;;;;;;9.57;5.60;;;;;;;-5.92;100.00;99607.97;4153833;28;20050;-71
2021/12/21 00:26:52;;;;;;;10.52;5.57;;;;;;;-5.97;100.00;99606.81;4154114;28;20457;-71
2021/12/21 00:30:52;;;;;;;10.27;6.15;;;;;;;-6.00;100.00;99615.41;4153688;28;20412;-71
2021/12/21 00:32:53;;;;;;;12.85;6.75;;;;;;;-6.01;100.00;99605.69;4153748;28;20073;-71
2021/12/21 00:34:53;;;;;;;9.75;5.93;;;;;;;-6.04;100.00;99608.88;4154971;28;20737;-71
2021/12/21 00:36:53;;;;;;;10.02;5.53;;;;;;;-6.10;100.00;99609.00;4153881;28;20299;-71
2021/12/21 00:38:56;;;;;;;8.57;5.50;;;;;;;-6.10;100.00;99604.44;4153742;28;20057;-71
2021/12/21 00:40:56;;;;;;;;;;;;;;;-6.04;100.00;99606.16;4155183;28;20037;-71
2021/12/21 00:42:57;;;;;;;11.60;5.32;;;;;;;-5.95;100.00;99599.31;4154272;28;20350;-71
2021/12/21 00:44:57;;;;;;;11.18;6.13;;;;;;;-6.03;100.00;99602.41;4154316;28;20753;-71
2021/12/21 00:46:57;;;;;;;9.63;6.03;;;;;;;-5.95;100.00;99606.59;4153917;28;20920;-71
2021/12/21 00:49:11;;;;;;;9.63;5.53;;;;;;;-5.98;100.00;99605.19;4154578;28;20068;-71
2021/12/21 00:51:11;;;;;;;10.93;6.57;;;;;;;-6.00;100.00;99593.84;4153776;28;20836;-71
2021/12/21 00:53:12;;;;;;;11.85;5.50;;;;;;;-5.98;100.00;99602.47;4155138;28;20049;-71
2021/12/21 00:55:13;;;;;;;12.27;6.30;;;;;;;-5.99;100.00;99594.66;4153689;28;20144;-71
2021/12/21 00:57:13;;;;;;;15.68;6.43;;;;;;;-5.99;100.00;99594.66;4153628;28;20049;-71
2021/12/21 00:59:14;;;;;;;12.50;6.15;;;;;;;-6.03;100.00;99598.91;4154131;28;20514;-71
2021/12/21 01:01:14;;;;;;;14.13;6.28;;;;;;;-6.00;100.00;99598.41;4153536;28;20050;-71
2021/12/21 01:03:17;;;;;;;12.98;6.28;;;;;;;-5.97;100.00;99592.53;4152402;28;20056;-71
2021/12/21 01:05:28;;;;;;;16.52;6.85;;;;;;;-5.99;100.00;99595.47;4152576;28;20037;-71
2021/12/21 01:07:37;;;;;;;13.82;6.47;;;;;;;-6.11;100.00;99594.72;4151784;28;20045;-71
2021/12/21 01:12:15;;;;;;;12.48;6.97;;;;;;;-6.15;100.00;99592.75;4135255;28;20474;-71
2021/12/21 01:16:38;;;;;;;13.95;7.18;;;;;;;-6.22;100.00;99584.81;4153877;28;20044;-71
2021/12/21 01:18:54;;;;;;;12.95;7.10;;;;;;;-6.34;100.00;99595.63;4153397;28;20057;-71
2021/12/21 01:21:32;;;;;;;15.50;7.68;;;;;;;-6.40;100.00;99585.81;4152370;28;20046;-71
2021/12/21 01:25:50;;;;;;;15.40;7.32;;;;;;;-6.43;100.00;99578.25;4151684;28;20048;-71
2021/12/21 01:28:06;;;;;;;13.55;6.75;;;;;;;-6.35;100.00;99585.94;4151598;28;20053;-71
2021/12/21 01:30:17;;;;;;;12.50;7.22;;;;;;;-6.30;100.00;99577.94;4151399;28;20558;-71
2021/12/21 01:34:48;;;;;;;12.30;7.00;;;;;;;-6.34;100.00;99587.56;4152578;28;20073;-71
2021/12/21 01:37:02;;;;;;;14.50;7.00;;;;;;;-6.38;100.00;99582.88;4152007;28;20491;-71
2021/12/21 01:39:38;;;;;;;17.30;7.70;;;;;;;-6.37;100.00;99582.66;4153496;28;20049;-71
2021/12/21 01:43:47;;;;;;;13.43;7.55;;;;;;;-6.39;100.00;99583.94;4152729;28;20449;-71
2021/12/21 01:50:26;;;;;;;15.82;8.15;;;;;;;-6.52;100.00;99577.81;4152633;28;20133;-71
2021/12/21 01:52:28;;;;;;;12.45;8.20;;;;;;;-6.49;100.00;99573.81;4153464;28;20132;-70
2021/12/21 01:54:28;;;;;;;16.58;8.43;;;;;;;-6.50;100.00;99574.88;4152597;28;20112;-71
2021/12/21 01:56:28;;;;;;;14.18;7.53;;;;;;;-6.45;100.00;99583.06;4153269;28;20080;-71
2021/12/21 01:58:30;;;;;;;16.75;8.30;;;;;;;-6.48;100.00;99575.44;4152720;28;20050;-71
2021/12/21 02:00:31;;;;;;;11.25;7.13;;;;;;;-6.48;100.00;99575.44;4152748;28;20045;-71
2021/12/21 02:02:31;;;;;;;12.25;7.43;;;;;;;-6.51;100.00;99575.94;4150329;28;20067;-71
2021/12/21 02:04:32;;;;;;;12.88;7.72;;;;;;;-6.51;100.00;99576.75;4153063;28;20080;-71
2021/12/21 02:06:32;;;;;;;16.13;7.80;;;;;;;-6.57;100.00;99574.19;4153083;28;20127;-71
2021/12/21 02:08:33;;;;;;;14.73;7.28;;;;;;;-6.60;100.00;99572.81;4152533;28;20049;-71
2021/12/21 02:10:33;;;;;;;13.13;7.50;;;;;;;-6.65;100.00;99571.88;4151343;28;20047;-71
2021/12/21 02:12:34;;;;;;;13.93;7.30;;;;;;;-6.68;100.00;99556.22;4153315;28;20057;-71
2021/12/21 02:14:35;;;;;;;14.82;6.88;;;;;;;-6.66;100.00;99560.28;4152656;28;20053;-71
2021/12/21 02:17:08;;;;;;;13.30;7.25;;;;;;;-6.76;100.00;99556.59;4151096;28;20051;-71
2021/12/21 02:19:22;;;;;;;16.05;7.10;;;;;;;-6.78;100.00;99556.84;4153036;28;20045;-71
2021/12/21 02:21:33;;;;;;;13.60;7.03;;;;;;;-6.67;100.00;99552.47;4152856;28;20041;-71
2021/12/21 02:23:37;;;;;;;15.10;7.28;;;;;;;-6.59;100.00;99552.88;4151012;28;20523;-71
2021/12/21 02:30:19;;;;;;;11.38;6.55;;;;;;;-6.82;100.00;99559.16;4151991;28;20398;-71
2021/12/21 02:32:20;;;;;;;15.27;7.97;;;;;;;-6.88;100.00;99549.34;4152718;28;20045;-71
2021/12/21 02:34:23;;;;;;;12.57;7.35;;;;;;;-6.86;100.00;99551.81;4152576;28;20049;-71
2021/12/21 02:36:24;;;;;;;13.70;7.30;;;;;;;-6.91;100.00;99546.31;4152654;28;20396;-71
2021/12/21 02:38:26;;;;;;;13.35;7.35;;;;;;;-6.93;100.00;99543.88;4151826;28;20159;-71
2021/12/21 02:40:26;;;;;;;16.65;7.45;;;;;;;-6.97;100.00;99536.50;4152817;28;20504;-71
2021/12/21 02:42:26;;;;;;;10.40;7.10;;;;;;;-6.95;100.00;99540.63;4151898;28;20053;-71
2021/12/21 02:44:27;;;;;;;14.15;6.97;;;;;;;-6.95;100.00;99546.00;4152683;28;20057;-71
2021/12/21 02:46:27;;;;;;;11.45;7.15;;;;;;;-6.91;100.00;99533.69;4152493;28;20041;-71
2021/12/21 02:48:28;;;;;;;12.00;6.50;;;;;;;-6.98;100.00;99538.38;4151930;28;20237;-71
2021/12/21 02:50:28;;;;;;;16.05;7.40;;;;;;;-7.03;100.00;99541.00;4152525;28;20436;-71
2021/12/21 02:52:28;;;;;;;14.63;5.95;;;;;;;-7.14;100.00;99547.19;4151540;28;20368;-71
2021/12/21 02:54:29;;;;;;;11.20;5.40;;;;;;;-7.28;100.00;99538.56;4152247;28;20479;-71
2021/12/21 02:56:29;;;;;;;10.43;6.30;;;;;;;-7.32;100.00;99539.28;4151525;28;20391;-71
2021/12/21 02:58:29;;;;;;;16.45;6.70;;;;;;;-7.34;100.00;99539.50;4151056;28;20155;-71
2021/12/21 03:00:31;;;;;;;14.15;6.65;;;;;;;-7.23;100.00;99543.22;4151813;28;20033;-71
2021/12/21 03:02:32;;;;;;;11.45;6.72;;;;;;;-7.17;100.00;99544.97;4151863;28;20044;-71
2021/12/21 03:04:33;;;;;;;16.92;7.85;;;;;;;-7.06;100.00;99536.06;4152766;28;20099;-71
2021/12/21 03:10:39;;;;;;;15.18;6.82;;;;;;;-7.02;100.00;99536.41;4151005;28;20080;-71
2021/12/21 03:14:52;;;;;;;10.57;5.85;;;;;;;-6.98;100.00;99542.94;4152058;28;20046;-71
2021/12/21 03:16:53;;;;;;;11.60;5.82;;;;;;;-6.94;100.00;99538.75;4151208;28;20045;-71
2021/12/21 03:18:56;;;;;;;12.65;6.68;;;;;;;-6.95;100.00;99537.06;4151044;28;20068;-71
2021/12/21 03:20:56;;;;;;;11.95;5.50;;;;;;;-6.90;100.00;99537.19;4152443;28;20049;-71
2021/12/21 03:22:56;;;;;;;10.60;5.15;;;;;;;-6.90;100.00;99542.56;4151615;28;20616;-71
2021/12/21 03:24:56;;;;;;;11.50;5.65;;;;;;;-6.94;100.00;99541.44;4149187;28;20144;-71
2021/12/21 03:26:57;;;;;;;17.42;5.85;;;;;;;-6.94;100.00;99538.75;4148155;28;20048;-71
2021/12/21 03:28:57;;;;;;;9.70;5.18;;;;;;;-6.95;100.00;99532.53;4150892;28;20678;-72
2021/12/21 03:30:58;;;;;;;11.43;5.47;;;;;;;-6.97;100.00;99531.94;4151500;28;20069;-71
2021/12/21 03:32:58;;;;;;;10.10;6.15;;;;;;;-6.99;100.00;99528.69;4152118;28;20048;-71
2021/12/21 03:34:58;;;;;;;11.40;5.10;;;;;;;-7.00;100.00;99523.53;4151849;28;20050;-71
2021/12/21 03:36:59;;;;;;;11.40;5.43;;;;;;;-7.12;100.00;99526.25;4150543;28;20481;-71
2021/12/21 03:39:05;;;;;;;11.02;5.95;;;;;;;-7.25;100.00;99518.44;4152081;28;20049;-71
2021/12/21 03:41:13;;;;;;;12.57;6.10;;;;;;;-7.17;100.00;99523.47;4151251;28;20045;-71
2021/12/21 03:43:13;;;;;;;13.35;5.85;;;;;;;-7.14;100.00;99525.66;4150795;28;20053;-71
2021/12/21 03:45:14;;;;;;;13.18;7.32;;;;;;;-7.17;100.00;99524.28;4152247;28;20537;-71
2021/12/21 03:47:16;;;;;;;18.27;6.93;;;;;;;-7.21;100.00;99519.59;4150817;28;20050;-71
2021/12/21 03:51:29;;;;;;;11.55;6.75;;;;;;;-7.23;100.00;99519.84;4150210;28;20064;-71
2021/12/21 03:53:29;;;;;;;13.23;7.13;;;;;;;-7.21;100.00;99525.78;4152022;28;20778;-71
2021/12/21 03:55:30;;;;;;;17.00;6.82;;;;;;;-7.23;100.00;99527.09;4150624;28;20049;-71
2021/12/21 03:57:30;;;;;;;14.35;7.00;;;;;;;-7.25;100.00;99521.97;4150628;28;20536;-71
2021/12/21 03:59:32;;;;;;;18.77;7.35;;;;;;;-7.21;100.00;99523.09;4149176;28;20120;-71
2021/12/21 04:01:33;;;;;;;17.25;8.57;;;;;;;-7.24;100.00;99525.47;4149959;28;20045;-71
2021/12/21 04:03:33;;;;;;;16.50;9.25;;;;;;;-7.33;100.00;99516.13;4149940;28;20608;-71
2021/12/21 04:05:33;;;;;;;18.98;8.75;;;;;;;-7.27;100.00;99526.75;4152062;28;20049;-71
2021/12/21 04:07:34;;;;;;;25.10;8.40;;;;;;;-7.34;100.00;99531.44;4149385;28;20354;-71
2021/12/21 04:09:35;;;;;;;17.48;8.95;;;;;;;-7.33;100.00;99519.63;4151623;28;20088;-71
2021/12/21 04:11:35;;;;;;;24.88;9.07;;;;;;;-7.35;100.00;99527.13;4148599;28;20135;-71
2021/12/21 04:13:35;;;;;;;23.30;9.55;;;;;;;-7.40;100.00;99514.38;4150837;28;20046;-71
2021/12/21 04:15:43;;;;;;;24.05;9.93;;;;;;;-7.38;100.00;99516.81;4150233;28;20596;-71
2021/12/21 04:17:43;;;;;;;22.42;9.50;;;;;;;-7.38;100.00;99520.31;4149383;28;20058;-71
2021/12/21 04:19:44;;;;;;;28.15;11.38;;;;;;;-7.32;100.00;99517.75;4151412;28;20311;-71
2021/12/21 04:21:45;;;;;;;21.00;9.93;;;;;;;-7.33;100.00;99516.94;4151119;28;20057;-71
2021/12/21 04:23:45;;;;;;;20.17;9.75;;;;;;;-7.44;100.00;99505.16;4153017;28;20061;-71
2021/12/21 04:25:46;;;;;;;24.92;10.52;;;;;;;-7.44;100.00;99504.34;4153290;28;20443;-71
2021/12/21 04:27:46;;;;;;;30.17;11.75;;;;;;;-7.46;100.00;99499.19;4151712;28;20477;-71
2021/12/21 04:29:46;;;;;;;19.75;9.55;;;;;;;-7.37;100.00;99515.75;4154583;28;20391;-71
2021/12/21 04:31:48;;;;;;;24.45;10.55;;;;;;;-7.36;100.00;99515.56;4153646;28;20049;-71
2021/12/21 04:33:48;;;;;;;23.23;9.98;;;;;;;-7.44;100.00;99517.78;4154420;28;20110;-71
2021/12/21 04:35:49;;;;;;;19.80;9.48;;;;;;;-7.41;100.00;99506.56;4152546;28;20406;-72
2021/12/21 04:38:01;;;;;;;22.88;9.38;;;;;;;-7.53;100.00;99506.56;4152394;28;20068;-72
2021/12/21 04:40:06;;;;;;;17.40;8.52;;;;;;;-7.51;100.00;99509.03;4153202;28;20053;-71
2021/12/21 04:42:06;;;;;;;24.58;9.95;;;;;;;-7.40;100.00;99505.50;4153883;28;20513;-71
2021/12/21 04:44:07;;;;;;;18.55;9.63;;;;;;;-7.51;100.00;99501.78;4154581;28;20037;-71
2021/12/21 04:46:08;;;;;;;19.48;8.73;;;;;;;-7.47;100.00;99504.78;4153433;28;20053;-71
2021/12/21 04:48:08;;;;;;;26.10;9.85;;;;;;;-7.56;100.00;99498.16;4153568;28;20273;-71
2021/12/21 04:50:10;;;;;;;24.20;9.75;;;;;;;-7.61;100.00;99496.19;4151728;28;20034;-71
2021/12/21 04:52:11;;;;;;;21.25;9.68;;;;;;;-7.60;100.00;99499.69;4153130;28;20585;-71
2021/12/21 04:54:11;;;;;;;21.23;9.02;;;;;;;-7.59;100.00;99490.56;4153997;28;20602;-71
2021/12/21 04:56:11;;;;;;;26.05;9.73;;;;;;;-7.69;100.00;99494.66;4152858;28;20041;-71
2021/12/21 04:58:12;;;;;;;20.90;9.25;;;;;;;-7.70;100.00;99502.94;4151879;28;20206;-71
2021/12/21 05:00:13;;;;;;;19.60;9.95;;;;;;;-7.62;100.00;99483.78;4152106;28;20514;-71
2021/12/21 05:02:13;;;;;;;24.38;9.68;;;;;;;-7.60;100.00;99492.44;4153206;28;20065;-71
2021/12/21 05:04:13;;;;;;;19.00;9.02;;;;;;;-7.61;100.00;99495.34;4152666;28;20300;-71
2021/12/21 05:06:15;;;;;;;18.42;8.65;;;;;;;-7.60;100.00;99492.44;4152702;28;20037;-71
2021/12/21 05:08:29;;;;;;;20.17;9.68;;;;;;;-7.49;100.00;99488.91;4153594;28;20052;-71
2021/12/21 05:10:29;;;;;;;18.02;8.73;;;;;;;-7.50;100.00;99491.84;4151149;28;20041;-71
2021/12/21 05:12:30;;;;;;;18.25;7.97;;;;;;;-7.57;100.00;99497.34;4153450;28;20068;-71
2021/12/21 05:14:31;;;;;;;20.25;9.25;;;;;;;-7.57;100.00;99488.44;4153126;28;20049;-71
2021/12/21 05:16:31;;;;;;;18.90;9.85;;;;;;;-7.57;100.00;99497.34;4153188;28;20095;-71
2021/12/21 05:18:35;;;;;;;20.30;8.85;;;;;;;-7.68;100.00;99506.22;4152649;28;20382;-71
2021/12/21 05:20:36;;;;;;;17.15;8.45;;;;;;;-7.79;100.00;99517.78;4152181;28;20037;-71
2021/12/21 05:22:37;;;;;;;20.27;8.90;;;;;;;-7.89;100.00;99506.81;4152095;28;20052;-71
2021/12/21 05:24:37;;;;;;;16.42;7.80;;;;;;;-7.85;100.00;99500.75;4153865;28;20042;-71
2021/12/21 05:26:37;;;;;;;18.33;8.70;;;;;;;-7.84;100.00;99510.44;4152906;28;20509;-71
2021/12/21 05:28:38;;;;;;;14.57;8.02;;;;;;;-7.79;100.00;99498.97;4152034;28;20045;-71
2021/12/21 05:30:39;;;;;;;17.05;9.02;;;;;;;-7.74;100.00;99502.59;4150907;28;20596;-71
2021/12/21 05:32:40;;;;;;;13.90;8.38;;;;;;;-7.71;100.00;99506.69;4151081;28;20056;-71
2021/12/21 05:34:40;;;;;;;19.35;8.32;;;;;;;-7.75;100.00;99509.03;4152331;28;20127;-71
2021/12/21 05:36:41;;;;;;;19.33;8.45;;;;;;;-7.76;100.00;99504.72;4150778;28;20217;-71
2021/12/21 05:38:47;;;;;;;16.23;8.02;;;;;;;-7.71;100.00;99507.50;4150566;28;20048;-71
2021/12/21 05:40:48;;;;;;;13.85;7.35;;;;;;;-7.72;100.00;99513.13;4149707;28;20322;-71
2021/12/21 05:42:48;;;;;;;16.77;8.43;;;;;;;-7.61;100.00;99504.25;4152268;28;20107;-71
2021/12/21 05:44:49;;;;;;;15.88;7.18;;;;;;;-7.61;100.00;99506.94;4151898;28;20076;-71
2021/12/21 05:46:52;;;;;;;13.60;6.90;;;;;;;-7.63;100.00;99495.56;4156129;28;20632;-71
2021/12/21 05:48:55;;;;;;;16.42;7.40;;;;;;;-7.65;100.00;99500.38;4152910;28;20690;-71
2021/12/21 05:50:55;;;;;;;14.90;7.07;;;;;;;-7.72;100.00;99511.25;4151333;28;20069;-71
2021/12/21 05:52:55;;;;;;;13.80;7.03;;;;;;;-7.71;100.00;99514.75;4148998;28;20034;-72
2021/12/21 05:54:56;;;;;;;14.10;7.15;;;;;;;-7.75;100.00;99510.91;4148124;28;20038;-72
2021/12/21 05:56:56;;;;;;;13.07;6.78;;;;;;;-7.78;100.00;99503.28;4152292;28;20080;-71
2021/12/21 05:58:57;;;;;;;16.75;7.03;;;;;;;-7.77;100.00;99513.00;4150136;28;20136;-71
2021/12/21 06:00:57;;;;;;;11.65;7.18;;;;;;;-7.77;100.00;99518.38;4150456;28;20085;-71
2021/12/21 06:02:57;;;;;;;13.85;7.55;;;;;;;-7.80;100.00;99516.16;4152493;28;20487;-71
2021/12/21 06:04:58;;;;;;;20.25;7.50;;;;;;;-7.73;100.00;99516.84;4152139;28;20204;-71
2021/12/21 06:06:58;;;;;;;14.27;7.55;;;;;;;-7.76;100.00;99502.03;4152400;28;20363;-71
2021/12/21 06:09:04;;;;;;;17.17;7.75;;;;;;;-7.79;100.00;99515.09;4152561;28;20864;-71
2021/12/21 06:11:06;;;;;;;12.45;6.88;;;;;;;-7.74;100.00;99502.59;4151996;28;20686;-71
2021/12/21 06:15:45;;;;;;;14.20;7.25;;;;;;;-7.75;100.00;99508.22;4153023;28;20045;-72
2021/12/21 06:26:41;;;;;;;14.73;6.97;;;;;;;-8.15;100.00;99502.69;4151921;28;20064;-71
2021/12/21 06:28:43;;;;;;;16.05;6.88;;;;;;;-8.30;100.00;99509.31;4152763;28;20533;-72
2021/12/21 06:30:44;;;;;;;17.20;7.20;;;;;;;-8.30;100.00;99508.50;4151447;28;20073;-71
2021/12/21 06:32:44;;;;;;;15.43;8.18;;;;;;;-8.18;100.00;99503.16;4151257;28;20096;-72
2021/12/21 06:34:45;;;;;;;15.13;7.63;;;;;;;-8.14;100.00;99507.00;4151283;28;20060;-72
2021/12/21 06:36:45;;;;;;;14.18;6.50;;;;;;;-8.03;100.00;99511.56;4151821;28;20136;-71
2021/12/21 06:38:46;;;;;;;15.50;6.40;;;;;;;-8.00;100.00;99506.56;4152609;28;20160;-71
2021/12/21 06:40:47;;;;;;;16.85;6.45;;;;;;;-8.02;100.00;99511.38;4153093;28;20045;-71
2021/12/21 06:42:50;;;;;;;12.00;6.38;;;;;;;-7.95;100.00;99505.84;4152129;28;20045;-71
2021/12/21 06:44:55;;;;;;;16.58;7.03;;;;;;;-7.87;100.00;99507.38;4152073;28;20045;-71
2021/12/21 06:51:08;;;;;;;13.93;5.95;;;;;;;-7.90;100.00;99514.03;4152110;28;20415;-71
2021/12/21 06:51:49;;;;;;;12.23;5.93;;;;;;;-7.94;100.00;99508.34;4152488;28;20136;-71
2021/12/21 06:53:54;;;;;;;11.95;6.15;;;;;;;-7.99;100.00;99512.75;4152127;28;20148;-71
2021/12/21 06:55:54;;;;;;;7.95;4.88;;;;;;;-8.07;100.00;99513.91;4151996;28;20045;-71
2021/12/21 06:57:55;;;;;;;11.90;5.40;;;;;;;-8.15;100.00;99514.25;4151910;28;20437;-71
2021/12/21 06:59:55;;;;;;;11.85;6.40;;;;;;;-8.04;100.00;99518.00;4151392;28;20045;-72
2021/12/21 07:01:56;;;;;;;12.23;5.97;;;;;;;-8.06;100.00;99515.53;4152756;28;20045;-71
2021/12/21 07:03:58;;;;;;;12.13;6.22;;;;;;;-8.03;100.00;99519.63;4151941;28;20502;-71
2021/12/21 07:06:03;;;;;;;20.27;6.82;;;;;;;-7.98;100.00;99522.44;4152928;28;20536;-71
2021/12/21 07:08:04;;;;;;;11.60;6.10;;;;;;;-8.04;100.00;99516.13;4151332;28;20454;-71
2021/12/21 07:10:09;;;;;;;12.48;5.68;;;;;;;-7.97;100.00;99524.06;4152052;28;20144;-71
2021/12/21 07:19:09;;;;;;;9.93;5.63;;;;;;;-7.94;100.00;99518.25;4151271;28;20071;-71
2021/12/21 07:21:10;;;;;;;11.77;5.57;;;;;;;-7.93;100.00;99523.41;4152169;28;20061;-71
2021/12/21 07:23:10;;;;;;;11.85;4.85;;;;;;;-7.97;100.00;99514.16;4151997;28;20161;-72
2021/12/21 07:25:11;;;;;;;14.30;6.22;;;;;;;-7.93;100.00;99519.91;4152056;28;20589;-71
2021/12/21 07:27:11;;;;;;;13.77;6.18;;;;;;;-7.92;100.00;99524.22;4150585;28;20038;-71
2021/12/21 07:29:12;;;;;;;13.02;7.85;;;;;;;-7.84;100.00;99526.56;4152043;28;20495;-71
2021/12/21 07:31:13;;;;;;;13.65;7.15;;;;;;;-7.78;100.00;99514.03;4151995;28;20061;-71
2021/12/21 07:33:15;;;;;;;11.70;7.28;;;;;;;-7.78;100.00;99530.97;4151395;28;20049;-71
2021/12/21 07:35:16;;;;;;;15.80;7.75;;;;;;;-7.78;100.00;99525.59;4152511;28;20483;-71
2021/12/21 07:37:18;;;;;;;16.40;7.57;;;;;;;-7.78;100.00;99536.34;4152332;28;20065;-71
2021/12/21 07:39:19;;;;;;;12.98;7.57;;;;;;;-7.78;100.00;99530.16;4151876;28;20041;-71
2021/12/21 07:41:20;;;;;;;16.00;8.35;;;;;;;-7.80;100.00;99525.03;4152381;28;20778;-71
2021/12/21 07:43:20;;;;;;;14.95;7.97;;;;;;;-7.88;100.00;99525.38;4151934;28;20045;-71
2021/12/21 07:45:21;;;;;;;21.95;9.20;;;;;;;-7.92;100.00;99535.78;4151798;28;20412;-71
2021/12/21 07:47:21;;;;;;;18.63;8.57;;;;;;;-7.96;100.00;99539.13;4151422;28;20049;-71
2021/12/21 07:49:21;;;;;;;14.05;7.57;;;;;;;-7.99;100.00;99542.31;4152160;28;20072;-71
2021/12/21 07:51:23;;;;;;;14.40;7.60;;;;;;;-8.05;100.00;99538.66;4151467;28;20434;-71
2021/12/21 07:53:23;;;;;;;13.75;7.10;;;;;;;-8.05;100.00;99537.84;4152708;28;20048;-71
2021/12/21 07:55:24;;;;;;;22.23;9.48;;;;;;;-8.03;100.00;99539.25;4151531;28;20050;-71
2021/12/21 07:57:24;;;;;;;20.75;8.80;;;;;;;-7.93;100.00;99533.31;4153361;28;20471;-71
2021/12/21 07:59:25;;;;;;;17.70;8.48;;;;;;;-7.87;100.00;99536.94;4153739;28;20050;-71
2021/12/21 08:01:26;;;;;;;18.48;8.88;;;;;;;-7.82;100.00;99547.81;4155444;28;20072;-71
2021/12/21 08:03:28;;;;;;;18.38;8.45;;;;;;;-7.85;100.00;99548.28;4154797;28;20041;-71
2021/12/21 08:05:32;;;;;;;17.77;8.33;;;;;;;-7.86;100.00;99550.16;4153676;28;20045;-71
2021/12/21 08:07:37;;;;;;;18.10;8.38;;;;;;;-7.80;100.00;99554.56;4154823;28;20045;-71
2021/12/21 08:09:41;;;;;;;17.02;8.15;;;;;;;-7.73;100.00;99559.84;4155223;28;20492;-71
2021/12/21 08:13:45;;;;;;;16.58;9.18;;;;;;;-7.60;100.00;99565.00;4154750;28;20419;-71
2021/12/21 08:15:46;;;;;;;15.95;8.43;;;;;;;-7.57;100.00;99556.47;4155521;28;20449;-71
2021/12/21 08:17:46;;;;;;;16.60;8.77;;;;;;;-7.52;100.00;99556.59;4154801;28;20053;-71
2021/12/21 08:19:48;;;;;;;15.85;9.00;;;;;;;-7.42;100.00;99562.19;4154698;28;20049;-71
2021/12/21 08:21:48;;;;;;;19.00;9.90;;;;;;;-7.38;100.00;99555.28;4154290;28;20080;-71
2021/12/21 08:23:48;;;;;;;18.05;9.77;;;;;;;-7.32;100.00;99552.72;4154985;28;20037;-72
2021/12/21 08:25:49;;;;;;;16.25;9.32;;;;;;;-7.31;100.00;99548.97;4154867;28;20037;-71
2021/12/21 08:27:52;;;;;;;19.67;10.50;;;;;;;-7.29;100.00;99555.75;4152948;28;20091;-71
2021/12/21 08:29:53;;;;;;;19.13;9.80;;;;;;;-7.26;100.00;99557.97;4154706;28;20364;-71
2021/12/21 08:31:53;;;;;;;20.10;8.68;;;;;;;-7.24;100.00;99560.41;4154426;28;20069;-71
2021/12/21 08:33:53;;;;;;;21.15;9.55;;;;;;;-7.23;100.00;99560.19;4154498;28;20055;-71
2021/12/21 08:35:55;;;;;;;19.88;9.45;;;;;;;-7.13;100.00;99564.97;4154994;28;20825;-72
2021/12/21 08:38:03;;;;;;;19.75;8.63;;;;;;;-7.09;100.00;99575.03;4153835;28;20544;-71
2021/12/21 08:40:07;;;;;;;15.30;8.13;;;;;;;-7.12;100.00;99577.34;4152692;28;20080;-71
2021/12/21 08:42:15;;;;;;;15.02;7.25;;;;;;;-7.13;100.00;99573.84;4154397;28;20482;-71
2021/12/21 08:44:21;;;;;;;18.38;8.55;;;;;;;-7.07;100.00;99572.91;4155057;28;20030;-71
2021/12/21 08:46:22;;;;;;;21.75;10.95;;;;;;;-6.99;100.00;99576.28;4153932;28;20045;-71
2021/12/21 08:48:23;;;;;;;24.50;10.32;;;;;;;-6.92;100.00;99576.97;4153460;28;20043;-71
2021/12/21 08:50:24;;;;;;;22.52;10.27;;;;;;;-6.88;100.00;99572.75;4154689;28;20052;-71
2021/12/21 08:52:24;;;;;;;27.33;12.35;;;;;;;-6.87;100.00;99575.22;4154678;28;20052;-71
2021/12/21 08:54:24;;;;;;;23.05;12.35;;;;;;;-6.79;100.00;99582.91;4153854;28;20034;-71
2021/12/21 08:56:25;;;;;;;19.83;10.55;;;;;;;-6.80;100.00;99581.25;4154607;28;20137;-71
2021/12/21 08:58:26;;;;;;;20.15;9.13;;;;;;;-6.78;100.00;99583.75;4153592;28;20080;-71
2021/12/21 09:00:26;;;;;;;16.98;8.90;;;;;;;-6.77;100.00;99574.59;4154808;28;20129;-71
2021/12/21 09:02:31;;;;;;;19.05;8.35;;;;;;;-6.79;100.00;99579.38;4154296;28;20392;-71
2021/12/21 09:04:32;;;;;;;21.65;9.38;;;;;;;-6.77;100.00;99576.47;4154634;28;20041;-71
2021/12/21 09:06:32;;;;;;;13.88;7.38;;;;;;;-6.79;99.62;99574.81;4152804;28;20060;-71
2021/12/21 09:08:33;;;;;;;19.00;7.88;;;;;;;-6.75;100.00;99571.69;4154487;28;20111;-71
2021/12/21 09:10:34;;;;;;;21.80;8.32;;;;;;;-6.73;100.00;99572.25;4154060;28;20056;-70
2021/12/21 09:12:35;;;;;;;15.85;7.78;;;;;;;-6.70;100.00;99571.75;4153357;28;20061;-71
2021/12/21 09:14:35;;;;;;;18.15;8.38;;;;;;;-6.69;99.71;99574.22;4153240;28;20493;-71
2021/12/21 09:16:35;;;;;;;13.85;7.57;;;;;;;-6.67;100.00;99577.50;4153175;28;20029;-71
2021/12/21 09:18:35;;;;;;;19.60;8.45;;;;;;;-6.60;100.00;99575.50;4153892;28;20398;-71
2021/12/21 09:20:36;;;;;;;15.93;7.47;;;;;;;-6.57;100.00;99583.06;4153934;28;20052;-71
2021/12/21 09:22:36;;;;;;;13.05;6.97;;;;;;;-6.53;100.00;99572.66;4152658;28;20535;-72
2021/12/21 09:24:37;;;;;;;13.65;7.25;;;;;;;-6.48;100.00;99569.22;4154554;28;20071;-71
2021/12/21 09:26:37;;;;;;;14.27;7.68;;;;;;;-6.42;100.00;99566.41;4152516;28;20049;-71
2021/12/21 09:28:37;;;;;;;12.68;6.35;;;;;;;-6.34;100.00;99576.78;4154036;28;20399;-71
2021/12/21 09:30:39;;;;;;;15.00;7.07;;;;;;;-6.27;100.00;99582.03;4153917;28;20069;-71
2021/12/21 09:32:40;;;;;;;11.63;7.30;;;;;;;-6.19;100.00;99578.13;4153342;28;20053;-71
2021/12/21 09:34:40;;;;;;;15.32;7.57;;;;;;;-6.11;100.00;99578.56;4154215;28;20169;-71
2021/12/21 09:36:41;;;;;;;15.50;7.05;;;;;;;-6.04;100.00;99586.47;4153217;28;20073;-71
2021/12/21 09:38:41;;;;;;;14.25;6.97;;;;;;;-6.01;100.00;99573.34;4152504;28;20053;-71
2021/12/21 09:40:41;;;;;;;15.43;8.75;;;;;;;-5.90;100.00;99579.69;4153629;28;20053;-71
2021/12/21 09:42:43;;;;;;;13.65;7.57;;;;;;;-5.82;100.00;99583.84;4154337;28;20041;-71
2021/12/21 09:44:43;;;;;;;22.90;9.38;;;;;;;-5.70;100.00;99573.81;4152919;28;20053;-71
2021/12/21 09:46:44;;;;;;;21.05;10.65;;;;;;;-5.58;100.00;99581.81;4151767;28;20050;-71
2021/12/21 09:48:44;;;;;;;16.38;8.02;;;;;;;-5.53;100.00;99574.63;4153918;28;20037;-71
2021/12/21 09:50:45;;;;;;;8.77;5.22;;;;;;;-5.44;100.00;99569.63;4153698;28;20422;-71
2021/12/21 09:52:46;;;;;;;8.50;4.00;;;;;;;-5.32;100.00;99573.03;4152960;28;20409;-71
2021/12/21 09:54:47;;;;;;;8.68;4.80;;;;;;;-5.27;100.00;99566.91;4152768;28;20052;-71
2021/12/21 09:56:47;;;;;;;7.53;3.70;;;;;;;-5.21;100.00;99565.94;4153155;28;20045;-70
2021/12/21 09:58:47;;;;;;;8.77;4.57;;;;;;;-5.20;100.00;99557.59;4153063;28;20041;-71
2021/12/21 10:00:48;;;;;;;7.43;4.63;;;;;;;-5.13;100.00;99566.31;4152556;28;20038;-70
2021/12/21 10:02:48;;;;;;;7.57;3.63;;;;;;;-5.01;100.00;99558.09;4153679;28;20539;-70
2021/12/21 10:04:57;;;;;;;9.60;4.93;;;;;;;-4.83;100.00;99565.88;4153642;28;20049;-71
2021/12/21 10:07:00;;;;;;;10.50;4.22;;;;;;;-4.74;100.00;99555.47;4152153;28;20118;-71
2021/12/21 10:09:07;;;;;;;10.27;5.15;;;;;;;-4.65;100.00;99556.66;4153058;28;20073;-71
2021/12/21 10:11:17;;;;;;;7.90;4.82;;;;;;;-4.61;100.00;99555.09;4151724;28;20072;-71
2021/12/21 10:13:22;;;;;;;8.63;3.92;;;;;;;-4.54;100.00;99541.41;4152631;28;20042;-71
2021/12/21 10:15:24;;;;;;;6.75;3.83;;;;;;;-4.39;100.00;99551.53;4152816;28;20053;-71
2021/12/21 10:17:24;;;;;;;14.35;5.40;;;;;;;-4.37;100.00;99544.81;4152340;28;20406;-70
2021/12/21 10:19:24;;;;;;;7.50;3.78;;;;;;;-4.21;100.00;99545.78;4152676;28;20045;-71
2021/12/21 10:21:25;;;;;;;8.82;4.38;;;;;;;-4.16;100.00;99548.53;4152101;28;20076;-71